createdAt,value
2019-05-02T00:03:26.190Z,8.70
2019-05-02T00:08:33.255Z,9.38
2019-05-02T00:13:40.245Z,10.75
2019-05-02T00:18:46.002Z,10.40
2019-05-02T00:23:51.978Z,10.28
2019-05-02T00:28:57.990Z,10.28
2019-05-02T00:34:05.258Z,8.38
2019-05-02T00:39:13.805Z,9.43
2019-05-02T00:44:18.581Z,9.80
2019-05-02T00:49:24.566Z,10.32
2019-05-02T00:54:30.635Z,10.50
2019-05-02T00:59:37.783Z,10.10
2019-05-02T01:04:45.801Z,10.85
2019-05-02T01:09:51.815Z,10.40
2019-05-02T01:14:57.880Z,10.50
2019-05-02T01:20:03.857Z,11.80
2019-05-02T01:25:14.992Z,11.80
2019-05-02T01:30:46.022Z,11.30
2019-05-02T01:36:06.363Z,10.48
2019-05-02T01:41:11.074Z,11.85
2019-05-02T01:46:21.713Z,11.97
2019-05-02T01:51:24.561Z,12.80
2019-05-02T01:56:33.145Z,12.30
2019-05-02T02:01:38.409Z,11.63
2019-05-02T02:06:45.203Z,11.78
2019-05-02T02:11:51.352Z,11.48
2019-05-02T02:16:57.200Z,11.88
2019-05-02T02:22:39.154Z,12.75
2019-05-02T02:27:44.704Z,12.33
2019-05-02T02:32:50.550Z,11.50
2019-05-02T02:37:57.922Z,11.75
2019-05-02T02:43:12.857Z,12.55
2019-05-02T02:48:11.233Z,11.40
2019-05-02T02:53:24.170Z,11.63
2019-05-02T02:58:26.575Z,11.40
2019-05-02T03:03:35.194Z,11.43
2019-05-02T03:08:46.286Z,11.03
2019-05-02T03:14:05.676Z,11.12
2019-05-02T03:19:01.633Z,11.38
2019-05-02T03:24:07.534Z,10.48
2019-05-02T03:29:13.581Z,11.68
2019-05-02T03:34:19.575Z,10.20
2019-05-02T03:39:25.855Z,10.78
2019-05-02T03:44:32.085Z,10.80
2019-05-02T03:49:41.064Z,10.40
2019-05-02T03:54:50.065Z,10.65
2019-05-02T03:59:53.595Z,11.22
2019-05-02T04:05:00.389Z,11.12
2019-05-02T04:10:07.550Z,11.33
2019-05-02T04:15:13.777Z,11.03
2019-05-02T04:20:18.982Z,10.65
2019-05-02T04:25:27.895Z,10.85
2019-05-02T04:30:32.674Z,11.53
2019-05-02T04:35:38.738Z,12.05
2019-05-02T04:40:46.639Z,13.60
2019-05-02T04:45:56.347Z,11.70
2019-05-02T04:51:10.044Z,11.85
2019-05-02T04:56:10.550Z,12.60
2019-05-02T05:01:16.882Z,12.75
2019-05-02T05:06:22.725Z,12.05
2019-05-02T05:11:28.720Z,12.78
2019-05-02T05:16:34.866Z,12.85
2019-05-02T05:21:40.865Z,11.45
2019-05-02T05:26:49.653Z,12.70
2019-05-02T05:32:05.242Z,13.88
2019-05-02T05:37:03.786Z,12.33
2019-05-02T05:42:11.938Z,13.22
2019-05-02T05:47:21.227Z,14.80
2019-05-02T05:52:27.158Z,13.98
2019-05-02T05:57:33.523Z,14.73
2019-05-02T06:02:53.263Z,15.70
2019-05-02T06:07:47.475Z,15.32
2019-05-02T06:12:55.499Z,15.23
2019-05-02T06:18:04.838Z,14.17
2019-05-02T06:23:08.948Z,14.85
2019-05-02T06:28:15.031Z,15.43
2019-05-02T06:33:21.087Z,15.15
2019-05-02T06:38:27.724Z,14.03
2019-05-02T06:43:33.887Z,14.43
2019-05-02T06:48:40.115Z,13.58
2019-05-02T06:53:47.117Z,12.80
2019-05-02T06:58:53.836Z,10.20
2019-05-02T07:03:59.846Z,10.70
2019-05-02T07:09:07.248Z,11.25
2019-05-02T07:14:14.045Z,8.83
2019-05-02T07:19:42.140Z,8.33
2019-05-02T07:24:48.065Z,7.70
2019-05-02T07:29:57.700Z,6.95
2019-05-02T07:35:03.206Z,6.65
2019-05-02T07:40:12.067Z,6.97
2019-05-02T07:45:17.809Z,5.95
2019-05-02T07:50:23.910Z,4.53
2019-05-02T07:55:30.706Z,4.42
2019-05-02T08:00:38.503Z,4.95
2019-05-02T08:05:44.719Z,4.95
2019-05-02T08:10:53.860Z,5.50
2019-05-02T08:15:58.358Z,4.50
2019-05-02T08:21:04.458Z,3.25
2019-05-02T08:26:10.510Z,4.37
2019-05-02T08:31:18.868Z,4.08
2019-05-02T08:36:23.945Z,4.05
2019-05-02T08:41:29.968Z,3.85
2019-05-02T08:46:35.995Z,2.87
2019-05-02T08:51:41.832Z,2.85
2019-05-02T08:56:47.827Z,3.10
2019-05-02T09:01:53.730Z,2.55
2019-05-02T09:07:00.787Z,3.10
2019-05-02T09:12:12.310Z,2.27
2019-05-02T09:17:16.656Z,1.60
2019-05-02T09:22:22.280Z,1.95
2019-05-02T09:27:28.167Z,1.95
2019-05-02T09:32:37.087Z,2.05
2019-05-02T09:37:52.247Z,1.47
2019-05-02T09:43:01.960Z,1.85
2019-05-02T09:48:08.108Z,1.77
2019-05-02T09:53:20.782Z,1.65
2019-05-02T09:58:23.891Z,1.52
2019-05-02T10:03:29.367Z,2.05
2019-05-02T10:08:38.218Z,1.98
2019-05-02T10:13:42.853Z,1.80
2019-05-02T10:18:48.921Z,2.20
2019-05-02T10:23:59.399Z,1.70
2019-05-02T10:29:02.678Z,1.32
2019-05-02T10:34:16.275Z,1.45
2019-05-02T10:39:16.275Z,1.37
2019-05-02T10:44:22.711Z,1.90
2019-05-02T10:49:42.489Z,1.60
2019-05-02T10:54:48.109Z,2.15
2019-05-02T10:59:56.129Z,1.27
2019-05-02T11:05:06.449Z,1.32
2019-05-02T11:10:12.900Z,1.60
2019-05-02T11:15:44.301Z,1.45
2019-05-02T11:25:45.474Z,0.98
2019-05-02T11:30:52.432Z,1.20
2019-05-02T11:35:58.677Z,1.52
2019-05-02T11:41:04.713Z,1.42
2019-05-02T11:46:12.115Z,2.02
2019-05-02T11:51:18.203Z,1.42
2019-05-02T11:56:24.076Z,1.62
2019-05-02T12:01:37.048Z,4.15
2019-05-02T12:06:37.652Z,1.50
2019-05-02T12:11:47.516Z,1.17
2019-05-02T12:16:52.673Z,1.70
2019-05-02T12:21:58.970Z,1.70
2019-05-02T12:27:05.061Z,1.32
2019-05-02T12:32:12.056Z,1.37
2019-05-02T12:37:18.100Z,2.75
2019-05-02T12:42:24.885Z,1.40
2019-05-02T12:47:33.861Z,1.22
2019-05-02T12:52:39.856Z,1.80
2019-05-02T12:57:45.933Z,1.15
2019-05-02T13:02:58.479Z,1.40
2019-05-02T13:08:04.417Z,1.80
2019-05-02T13:13:12.281Z,1.52
2019-05-02T13:18:22.652Z,1.50
2019-05-02T13:23:48.121Z,1.45
2019-05-02T13:28:54.329Z,1.30
2019-05-02T13:34:11.701Z,2.00
2019-05-02T13:39:22.819Z,2.20
2019-05-02T13:44:32.566Z,1.60
2019-05-02T13:49:51.435Z,1.60
2019-05-02T13:54:46.533Z,1.50
2019-05-02T13:59:52.664Z,1.52
2019-05-02T14:04:58.881Z,2.47
2019-05-02T14:10:11.965Z,1.60
2019-05-02T14:15:22.030Z,2.00
2019-05-02T14:20:28.076Z,1.67
2019-05-02T14:25:34.244Z,1.50
2019-05-02T14:30:45.564Z,1.87
2019-05-02T14:35:48.478Z,1.50
2019-05-02T14:41:12.461Z,1.52
2019-05-02T14:46:19.314Z,1.52
2019-05-02T14:51:27.625Z,1.27
2019-05-02T14:56:48.636Z,1.50
2019-05-02T15:02:05.789Z,2.20
2019-05-02T15:07:05.366Z,1.60
2019-05-02T15:12:15.767Z,1.45
2019-05-02T15:17:19.187Z,1.42
2019-05-02T15:22:27.593Z,1.40
2019-05-02T15:27:40.255Z,1.52
2019-05-02T15:32:52.988Z,1.92
2019-05-02T15:38:02.526Z,1.45
2019-05-02T15:43:09.599Z,1.45
2019-05-02T15:48:21.531Z,1.40
2019-05-02T15:53:39.084Z,1.37
2019-05-02T15:58:43.934Z,1.05
2019-05-02T16:03:52.251Z,1.27
2019-05-02T16:08:58.306Z,1.15
2019-05-02T16:14:04.398Z,1.82
2019-05-02T16:19:14.951Z,2.27
2019-05-02T16:24:23.030Z,1.70
2019-05-02T16:29:29.394Z,1.77
2019-05-02T16:34:54.239Z,2.08
2019-05-02T16:39:57.915Z,2.27
2019-05-02T16:45:03.882Z,1.75
2019-05-02T16:50:12.244Z,0.93
2019-05-02T16:55:21.253Z,0.93
2019-05-02T17:00:26.826Z,0.88
2019-05-02T17:05:33.943Z,0.95
2019-05-02T17:10:47.236Z,0.50
2019-05-02T17:15:52.249Z,0.55
2019-05-02T17:20:58.260Z,0.90
2019-05-02T17:26:04.406Z,0.70
2019-05-02T17:31:18.815Z,0.90
2019-05-02T17:36:21.595Z,0.75
2019-05-02T17:41:25.740Z,1.42
2019-05-02T17:46:31.826Z,1.00
2019-05-02T17:52:05.044Z,1.52
2019-05-02T17:57:03.198Z,1.70
2019-05-02T18:02:12.305Z,1.05
2019-05-02T18:07:18.173Z,1.10
2019-05-02T18:12:24.425Z,1.10
2019-05-02T18:17:31.789Z,1.30
2019-05-02T18:22:40.019Z,1.07
2019-05-02T18:27:45.667Z,1.15
2019-05-02T18:32:52.854Z,1.27
2019-05-02T18:37:59.098Z,1.60
2019-05-02T18:43:05.538Z,1.40
2019-05-02T18:48:13.489Z,2.47
2019-05-02T18:53:24.364Z,1.80
2019-05-02T18:58:27.683Z,1.50
2019-05-02T19:03:33.681Z,2.08
2019-05-02T19:08:47.589Z,2.22
2019-05-02T19:13:53.220Z,2.30
2019-05-02T19:19:01.733Z,2.55
2019-05-02T19:24:07.843Z,2.10
2019-05-02T19:29:31.868Z,2.45
2019-05-02T19:34:41.786Z,3.45
2019-05-02T19:39:48.878Z,3.12
2019-05-02T19:44:55.208Z,3.08
2019-05-02T19:50:03.041Z,2.33
2019-05-02T19:55:14.148Z,2.62
2019-05-02T20:00:17.248Z,2.58
2019-05-02T20:05:25.528Z,3.05
2019-05-02T20:10:32.194Z,2.98
2019-05-02T20:15:42.224Z,3.40
2019-05-02T20:21:25.964Z,3.52
2019-05-02T20:26:25.846Z,3.17
2019-05-02T20:31:32.259Z,3.20
2019-05-02T20:36:38.214Z,4.50
2019-05-02T20:41:44.276Z,4.93
2019-05-02T20:46:51.648Z,4.30
2019-05-02T20:51:57.714Z,4.17
2019-05-02T20:57:03.608Z,4.10
2019-05-02T21:02:09.558Z,3.17
2019-05-02T21:07:37.500Z,3.43
2019-05-02T21:12:43.212Z,3.02
2019-05-02T21:17:49.204Z,2.85
2019-05-02T21:22:55.194Z,2.25
2019-05-02T21:28:02.815Z,2.70
2019-05-02T21:33:31.925Z,2.98
2019-05-02T21:38:38.215Z,2.85
2019-05-02T21:43:44.317Z,2.55
2019-05-02T21:48:52.489Z,2.90
2019-05-02T21:54:26.050Z,3.35
2019-05-02T21:59:32.096Z,3.45
2019-05-02T22:04:38.182Z,5.22
2019-05-02T22:09:44.046Z,4.28
2019-05-02T22:14:49.876Z,4.67
2019-05-02T22:19:55.729Z,4.72
2019-05-02T22:25:02.224Z,5.22
2019-05-02T22:30:08.686Z,4.67
2019-05-02T22:35:14.737Z,4.67
2019-05-02T22:40:21.825Z,4.30
2019-05-02T22:45:28.026Z,5.15
2019-05-02T22:50:34.200Z,5.42
2019-05-02T22:55:40.247Z,5.60
2019-05-02T23:00:46.333Z,6.90
2019-05-02T23:05:52.705Z,6.70
2019-05-02T23:10:58.706Z,5.25
2019-05-02T23:16:04.678Z,6.47
2019-05-02T23:21:12.680Z,6.42
2019-05-02T23:26:34.238Z,5.28
2019-05-02T23:31:42.220Z,5.72
2019-05-02T23:36:48.026Z,5.85
2019-05-02T23:41:53.915Z,5.92
2019-05-02T23:46:59.907Z,5.90
2019-05-02T23:52:05.841Z,5.90
2019-05-02T23:57:12.241Z,6.03
